sensor_id;sensor_type;location;lat;lon;timestamp;P1;durP1;ratioP1;P2;durP2;ratioP2
49828;SDS011;35723;51.194;5.112;2023-07-20T00:00:51;9.85;;;3.85;;
49828;SDS011;35723;51.194;5.112;2023-07-20T00:03:18;11.18;;;3.97;;
49828;SDS011;35723;51.194;5.112;2023-07-20T00:05:50;16.42;;;4.35;;
49828;SDS011;35723;51.194;5.112;2023-07-20T00:08:18;11.60;;;4.05;;
49828;SDS011;35723;51.194;5.112;2023-07-20T00:10:44;11.43;;;4.00;;
49828;SDS011;35723;51.194;5.112;2023-07-20T00:13:13;12.07;;;3.85;;
49828;SDS011;35723;51.194;5.112;2023-07-20T00:15:40;10.75;;;4.20;;
49828;SDS011;35723;51.194;5.112;2023-07-20T00:18:06;10.55;;;3.85;;
49828;SDS011;35723;51.194;5.112;2023-07-20T00:20:32;9.98;;;4.15;;
49828;SDS011;35723;51.194;5.112;2023-07-20T00:22:58;13.25;;;4.22;;
49828;SDS011;35723;51.194;5.112;2023-07-20T00:25:24;9.65;;;3.80;;
49828;SDS011;35723;51.194;5.112;2023-07-20T00:27:50;14.48;;;4.18;;
49828;SDS011;35723;51.194;5.112;2023-07-20T00:30:16;13.30;;;4.30;;
49828;SDS011;35723;51.194;5.112;2023-07-20T00:32:42;12.55;;;4.32;;
49828;SDS011;35723;51.194;5.112;2023-07-20T00:35:08;10.60;;;4.18;;
49828;SDS011;35723;51.194;5.112;2023-07-20T00:37:34;11.18;;;4.35;;
49828;SDS011;35723;51.194;5.112;2023-07-20T00:40:00;15.48;;;4.97;;
49828;SDS011;35723;51.194;5.112;2023-07-20T00:42:26;13.07;;;4.35;;
49828;SDS011;35723;51.194;5.112;2023-07-20T00:44:51;15.23;;;4.50;;
49828;SDS011;35723;51.194;5.112;2023-07-20T00:47:17;13.27;;;4.28;;
49828;SDS011;35723;51.194;5.112;2023-07-20T00:49:42;9.93;;;4.13;;
49828;SDS011;35723;51.194;5.112;2023-07-20T00:52:08;13.48;;;4.45;;
49828;SDS011;35723;51.194;5.112;2023-07-20T00:54:38;15.20;;;4.55;;
49828;SDS011;35723;51.194;5.112;2023-07-20T00:57:04;12.52;;;4.70;;
49828;SDS011;35723;51.194;5.112;2023-07-20T00:59:33;11.30;;;4.22;;
49828;SDS011;35723;51.194;5.112;2023-07-20T01:02:00;13.85;;;4.32;;
49828;SDS011;35723;51.194;5.112;2023-07-20T01:04:26;14.10;;;4.88;;
49828;SDS011;35723;51.194;5.112;2023-07-20T01:06:58;14.70;;;4.47;;
49828;SDS011;35723;51.194;5.112;2023-07-20T01:09:39;15.52;;;4.60;;
49828;SDS011;35723;51.194;5.112;2023-07-20T01:12:30;11.63;;;4.72;;
49828;SDS011;35723;51.194;5.112;2023-07-20T01:15:04;13.27;;;4.43;;
49828;SDS011;35723;51.194;5.112;2023-07-20T01:17:32;16.38;;;4.82;;
49828;SDS011;35723;51.194;5.112;2023-07-20T01:19:58;15.85;;;4.25;;
49828;SDS011;35723;51.194;5.112;2023-07-20T01:25:15;13.50;;;4.80;;
49828;SDS011;35723;51.194;5.112;2023-07-20T01:27:49;13.20;;;4.50;;
49828;SDS011;35723;51.194;5.112;2023-07-20T01:33:41;10.35;;;4.30;;
49828;SDS011;35723;51.194;5.112;2023-07-20T01:36:08;19.70;;;5.07;;
49828;SDS011;35723;51.194;5.112;2023-07-20T01:38:35;15.35;;;4.68;;
49828;SDS011;35723;51.194;5.112;2023-07-20T01:41:02;11.98;;;4.60;;
49828;SDS011;35723;51.194;5.112;2023-07-20T01:43:28;14.65;;;4.60;;
49828;SDS011;35723;51.194;5.112;2023-07-20T01:45:54;13.65;;;4.70;;
49828;SDS011;35723;51.194;5.112;2023-07-20T01:48:19;13.73;;;4.70;;
49828;SDS011;35723;51.194;5.112;2023-07-20T01:50:45;14.75;;;4.63;;
49828;SDS011;35723;51.194;5.112;2023-07-20T01:53:11;14.98;;;4.57;;
49828;SDS011;35723;51.194;5.112;2023-07-20T01:55:36;15.98;;;4.85;;
49828;SDS011;35723;51.194;5.112;2023-07-20T01:58:02;17.80;;;5.07;;
49828;SDS011;35723;51.194;5.112;2023-07-20T02:00:28;16.00;;;4.80;;
49828;SDS011;35723;51.194;5.112;2023-07-20T02:02:54;19.90;;;5.20;;
49828;SDS011;35723;51.194;5.112;2023-07-20T02:05:20;17.40;;;4.80;;
49828;SDS011;35723;51.194;5.112;2023-07-20T02:07:45;17.27;;;5.13;;
49828;SDS011;35723;51.194;5.112;2023-07-20T02:10:11;13.75;;;4.60;;
49828;SDS011;35723;51.194;5.112;2023-07-20T02:12:37;17.25;;;5.15;;
49828;SDS011;35723;51.194;5.112;2023-07-20T02:15:03;16.67;;;5.25;;
49828;SDS011;35723;51.194;5.112;2023-07-20T02:17:29;15.85;;;4.78;;
49828;SDS011;35723;51.194;5.112;2023-07-20T02:19:55;15.68;;;4.93;;
49828;SDS011;35723;51.194;5.112;2023-07-20T02:22:22;16.63;;;5.03;;
49828;SDS011;35723;51.194;5.112;2023-07-20T02:24:48;17.85;;;5.40;;
49828;SDS011;35723;51.194;5.112;2023-07-20T02:27:15;13.90;;;5.00;;
49828;SDS011;35723;51.194;5.112;2023-07-20T02:29:41;14.30;;;5.43;;
49828;SDS011;35723;51.194;5.112;2023-07-20T02:32:07;12.07;;;4.65;;
49828;SDS011;35723;51.194;5.112;2023-07-20T02:34:34;13.85;;;4.63;;
49828;SDS011;35723;51.194;5.112;2023-07-20T02:37:00;14.70;;;4.90;;
49828;SDS011;35723;51.194;5.112;2023-07-20T02:39:29;16.00;;;4.95;;
49828;SDS011;35723;51.194;5.112;2023-07-20T02:41:55;17.30;;;4.93;;
49828;SDS011;35723;51.194;5.112;2023-07-20T02:44:21;16.00;;;5.47;;
49828;SDS011;35723;51.194;5.112;2023-07-20T02:46:47;19.38;;;5.50;;
49828;SDS011;35723;51.194;5.112;2023-07-20T02:49:14;14.20;;;5.45;;
49828;SDS011;35723;51.194;5.112;2023-07-20T02:51:40;15.88;;;5.70;;
49828;SDS011;35723;51.194;5.112;2023-07-20T02:54:06;14.13;;;5.18;;
49828;SDS011;35723;51.194;5.112;2023-07-20T02:56:32;17.45;;;5.82;;
49828;SDS011;35723;51.194;5.112;2023-07-20T02:58:57;17.05;;;5.80;;
49828;SDS011;35723;51.194;5.112;2023-07-20T03:01:23;13.23;;;5.63;;
49828;SDS011;35723;51.194;5.112;2023-07-20T03:03:49;13.90;;;5.20;;
49828;SDS011;35723;51.194;5.112;2023-07-20T03:06:15;14.68;;;5.78;;
49828;SDS011;35723;51.194;5.112;2023-07-20T03:08:42;15.57;;;5.65;;
49828;SDS011;35723;51.194;5.112;2023-07-20T03:11:16;16.60;;;6.57;;
49828;SDS011;35723;51.194;5.112;2023-07-20T03:13:43;18.00;;;6.35;;
49828;SDS011;35723;51.194;5.112;2023-07-20T03:16:09;18.05;;;6.20;;
49828;SDS011;35723;51.194;5.112;2023-07-20T03:18:39;18.48;;;6.28;;
49828;SDS011;35723;51.194;5.112;2023-07-20T03:21:05;19.17;;;6.45;;
49828;SDS011;35723;51.194;5.112;2023-07-20T03:23:32;17.55;;;6.57;;
49828;SDS011;35723;51.194;5.112;2023-07-20T03:25:58;16.67;;;6.80;;
49828;SDS011;35723;51.194;5.112;2023-07-20T03:28:23;17.00;;;6.53;;
49828;SDS011;35723;51.194;5.112;2023-07-20T03:30:53;16.30;;;6.25;;
49828;SDS011;35723;51.194;5.112;2023-07-20T03:33:19;15.48;;;6.40;;
49828;SDS011;35723;51.194;5.112;2023-07-20T03:35:46;16.08;;;6.78;;
49828;SDS011;35723;51.194;5.112;2023-07-20T03:38:12;15.27;;;6.50;;
49828;SDS011;35723;51.194;5.112;2023-07-20T03:40:38;15.13;;;6.80;;
49828;SDS011;35723;51.194;5.112;2023-07-20T03:43:03;18.38;;;7.07;;
49828;SDS011;35723;51.194;5.112;2023-07-20T03:45:29;19.92;;;7.35;;
49828;SDS011;35723;51.194;5.112;2023-07-20T03:47:54;16.08;;;6.80;;
49828;SDS011;35723;51.194;5.112;2023-07-20T03:50:21;16.30;;;6.95;;
49828;SDS011;35723;51.194;5.112;2023-07-20T03:52:47;17.35;;;6.60;;
49828;SDS011;35723;51.194;5.112;2023-07-20T03:55:12;14.23;;;6.72;;
49828;SDS011;35723;51.194;5.112;2023-07-20T03:57:38;17.27;;;6.85;;
49828;SDS011;35723;51.194;5.112;2023-07-20T04:00:04;17.48;;;6.90;;
49828;SDS011;35723;51.194;5.112;2023-07-20T04:02:32;20.88;;;7.10;;
49828;SDS011;35723;51.194;5.112;2023-07-20T04:04:58;18.85;;;6.88;;
49828;SDS011;35723;51.194;5.112;2023-07-20T04:07:24;17.40;;;7.47;;
49828;SDS011;35723;51.194;5.112;2023-07-20T04:09:49;19.98;;;7.10;;
49828;SDS011;35723;51.194;5.112;2023-07-20T04:12:15;21.17;;;8.20;;
49828;SDS011;35723;51.194;5.112;2023-07-20T04:14:41;20.33;;;7.45;;
49828;SDS011;35723;51.194;5.112;2023-07-20T04:17:07;20.48;;;7.75;;
49828;SDS011;35723;51.194;5.112;2023-07-20T04:19:32;18.95;;;8.43;;
49828;SDS011;35723;51.194;5.112;2023-07-20T04:21:58;17.83;;;7.50;;
49828;SDS011;35723;51.194;5.112;2023-07-20T04:24:24;23.23;;;8.93;;
49828;SDS011;35723;51.194;5.112;2023-07-20T04:26:49;17.35;;;7.78;;
49828;SDS011;35723;51.194;5.112;2023-07-20T04:29:15;19.05;;;8.60;;
49828;SDS011;35723;51.194;5.112;2023-07-20T04:31:41;18.70;;;8.40;;
49828;SDS011;35723;51.194;5.112;2023-07-20T04:34:06;21.45;;;8.43;;
49828;SDS011;35723;51.194;5.112;2023-07-20T04:36:32;20.63;;;9.07;;
49828;SDS011;35723;51.194;5.112;2023-07-20T04:38:57;20.95;;;9.35;;
49828;SDS011;35723;51.194;5.112;2023-07-20T04:41:23;21.52;;;9.35;;
49828;SDS011;35723;51.194;5.112;2023-07-20T04:43:50;22.40;;;9.07;;
49828;SDS011;35723;51.194;5.112;2023-07-20T04:46:15;19.92;;;9.65;;
49828;SDS011;35723;51.194;5.112;2023-07-20T04:48:43;22.17;;;9.88;;
49828;SDS011;35723;51.194;5.112;2023-07-20T04:51:08;20.83;;;9.95;;
49828;SDS011;35723;51.194;5.112;2023-07-20T04:53:35;23.20;;;10.98;;
49828;SDS011;35723;51.194;5.112;2023-07-20T04:56:01;28.48;;;12.32;;
49828;SDS011;35723;51.194;5.112;2023-07-20T04:58:26;24.42;;;11.30;;
49828;SDS011;35723;51.194;5.112;2023-07-20T05:00:52;24.00;;;10.90;;
49828;SDS011;35723;51.194;5.112;2023-07-20T05:03:18;24.13;;;12.50;;
49828;SDS011;35723;51.194;5.112;2023-07-20T05:05:44;25.33;;;11.65;;
49828;SDS011;35723;51.194;5.112;2023-07-20T05:08:10;26.45;;;11.43;;
49828;SDS011;35723;51.194;5.112;2023-07-20T05:10:35;22.73;;;12.25;;
49828;SDS011;35723;51.194;5.112;2023-07-20T05:13:01;23.10;;;11.70;;
49828;SDS011;35723;51.194;5.112;2023-07-20T05:15:27;21.50;;;11.30;;
49828;SDS011;35723;51.194;5.112;2023-07-20T05:17:52;25.30;;;12.30;;
49828;SDS011;35723;51.194;5.112;2023-07-20T05:20:18;25.48;;;12.73;;
49828;SDS011;35723;51.194;5.112;2023-07-20T05:22:45;24.42;;;12.07;;
49828;SDS011;35723;51.194;5.112;2023-07-20T05:25:10;22.13;;;11.85;;
49828;SDS011;35723;51.194;5.112;2023-07-20T05:27:36;28.55;;;13.40;;
49828;SDS011;35723;51.194;5.112;2023-07-20T05:30:03;23.20;;;13.00;;
49828;SDS011;35723;51.194;5.112;2023-07-20T05:32:30;26.23;;;13.48;;
49828;SDS011;35723;51.194;5.112;2023-07-20T05:34:55;24.23;;;12.05;;
49828;SDS011;35723;51.194;5.112;2023-07-20T05:37:21;26.83;;;13.85;;
49828;SDS011;35723;51.194;5.112;2023-07-20T05:39:47;26.77;;;13.18;;
49828;SDS011;35723;51.194;5.112;2023-07-20T05:42:12;25.50;;;14.70;;
49828;SDS011;35723;51.194;5.112;2023-07-20T05:44:39;26.95;;;14.18;;
49828;SDS011;35723;51.194;5.112;2023-07-20T05:47:05;26.15;;;13.65;;
49828;SDS011;35723;51.194;5.112;2023-07-20T05:49:31;24.35;;;13.55;;
49828;SDS011;35723;51.194;5.112;2023-07-20T05:51:56;25.27;;;14.10;;
49828;SDS011;35723;51.194;5.112;2023-07-20T05:54:25;25.27;;;12.98;;
49828;SDS011;35723;51.194;5.112;2023-07-20T05:56:51;26.08;;;14.10;;
49828;SDS011;35723;51.194;5.112;2023-07-20T05:59:16;24.50;;;13.32;;
49828;SDS011;35723;51.194;5.112;2023-07-20T06:01:43;23.60;;;12.63;;
49828;SDS011;35723;51.194;5.112;2023-07-20T06:04:09;20.95;;;11.52;;
49828;SDS011;35723;51.194;5.112;2023-07-20T06:06:34;22.40;;;12.18;;
49828;SDS011;35723;51.194;5.112;2023-07-20T06:09:00;22.83;;;11.55;;
49828;SDS011;35723;51.194;5.112;2023-07-20T06:11:29;21.35;;;11.88;;
49828;SDS011;35723;51.194;5.112;2023-07-20T06:13:56;22.13;;;11.90;;
49828;SDS011;35723;51.194;5.112;2023-07-20T06:16:22;21.88;;;11.60;;
49828;SDS011;35723;51.194;5.112;2023-07-20T06:18:48;20.77;;;10.82;;
49828;SDS011;35723;51.194;5.112;2023-07-20T06:21:13;19.95;;;10.52;;
49828;SDS011;35723;51.194;5.112;2023-07-20T06:23:39;18.75;;;9.63;;
49828;SDS011;35723;51.194;5.112;2023-07-20T06:26:06;17.75;;;9.48;;
49828;SDS011;35723;51.194;5.112;2023-07-20T06:28:32;15.43;;;8.32;;
49828;SDS011;35723;51.194;5.112;2023-07-20T06:31:01;16.20;;;8.20;;
49828;SDS011;35723;51.194;5.112;2023-07-20T06:33:27;16.77;;;8.45;;
49828;SDS011;35723;51.194;5.112;2023-07-20T06:35:53;18.48;;;9.45;;
49828;SDS011;35723;51.194;5.112;2023-07-20T06:38:19;17.52;;;8.05;;
49828;SDS011;35723;51.194;5.112;2023-07-20T06:40:48;13.80;;;7.90;;
49828;SDS011;35723;51.194;5.112;2023-07-20T06:43:16;14.45;;;7.53;;
49828;SDS011;35723;51.194;5.112;2023-07-20T06:45:42;14.95;;;6.88;;
49828;SDS011;35723;51.194;5.112;2023-07-20T06:48:07;14.13;;;7.10;;
49828;SDS011;35723;51.194;5.112;2023-07-20T06:50:33;15.40;;;7.95;;
49828;SDS011;35723;51.194;5.112;2023-07-20T06:52:59;14.73;;;7.68;;
49828;SDS011;35723;51.194;5.112;2023-07-20T06:55:26;16.33;;;7.07;;
49828;SDS011;35723;51.194;5.112;2023-07-20T06:57:51;12.60;;;6.47;;
49828;SDS011;35723;51.194;5.112;2023-07-20T07:00:17;13.20;;;6.13;;
49828;SDS011;35723;51.194;5.112;2023-07-20T07:02:43;10.00;;;5.60;;
49828;SDS011;35723;51.194;5.112;2023-07-20T07:05:09;15.13;;;7.60;;
49828;SDS011;35723;51.194;5.112;2023-07-20T07:07:34;12.35;;;6.93;;
49828;SDS011;35723;51.194;5.112;2023-07-20T07:10:00;13.73;;;5.90;;
49828;SDS011;35723;51.194;5.112;2023-07-20T07:12:29;11.68;;;5.85;;
49828;SDS011;35723;51.194;5.112;2023-07-20T07:14:55;9.30;;;4.75;;
49828;SDS011;35723;51.194;5.112;2023-07-20T07:17:21;12.75;;;6.20;;
49828;SDS011;35723;51.194;5.112;2023-07-20T07:19:46;11.40;;;5.55;;
49828;SDS011;35723;51.194;5.112;2023-07-20T07:22:12;9.45;;;4.90;;
49828;SDS011;35723;51.194;5.112;2023-07-20T07:24:38;10.40;;;5.30;;
49828;SDS011;35723;51.194;5.112;2023-07-20T07:27:06;6.72;;;3.80;;
49828;SDS011;35723;51.194;5.112;2023-07-20T07:29:33;5.88;;;3.20;;
49828;SDS011;35723;51.194;5.112;2023-07-20T07:31:59;4.10;;;2.72;;
49828;SDS011;35723;51.194;5.112;2023-07-20T07:34:25;5.00;;;2.65;;
49828;SDS011;35723;51.194;5.112;2023-07-20T07:36:51;3.65;;;2.60;;
49828;SDS011;35723;51.194;5.112;2023-07-20T07:39:16;3.50;;;2.00;;
49828;SDS011;35723;51.194;5.112;2023-07-20T07:41:42;2.20;;;1.45;;
49828;SDS011;35723;51.194;5.112;2023-07-20T07:44:08;3.90;;;1.63;;
49828;SDS011;35723;51.194;5.112;2023-07-20T07:46:33;3.00;;;1.60;;
49828;SDS011;35723;51.194;5.112;2023-07-20T07:48:59;3.83;;;2.05;;
49828;SDS011;35723;51.194;5.112;2023-07-20T07:51:25;5.70;;;2.33;;
49828;SDS011;35723;51.194;5.112;2023-07-20T07:53:52;7.18;;;2.25;;
49828;SDS011;35723;51.194;5.112;2023-07-20T07:56:18;3.22;;;2.35;;
49828;SDS011;35723;51.194;5.112;2023-07-20T07:58:47;4.13;;;1.50;;
49828;SDS011;35723;51.194;5.112;2023-07-20T08:01:13;3.95;;;1.75;;
49828;SDS011;35723;51.194;5.112;2023-07-20T08:03:39;2.63;;;1.83;;
49828;SDS011;35723;51.194;5.112;2023-07-20T08:06:05;2.80;;;1.50;;
49828;SDS011;35723;51.194;5.112;2023-07-20T08:08:31;1.92;;;1.50;;
49828;SDS011;35723;51.194;5.112;2023-07-20T08:10:57;3.88;;;1.50;;
49828;SDS011;35723;51.194;5.112;2023-07-20T08:13:23;2.35;;;1.50;;
49828;SDS011;35723;51.194;5.112;2023-07-20T08:15:50;2.60;;;1.80;;
49828;SDS011;35723;51.194;5.112;2023-07-20T08:18:16;5.30;;;1.92;;
49828;SDS011;35723;51.194;5.112;2023-07-20T08:20:45;4.10;;;1.90;;
49828;SDS011;35723;51.194;5.112;2023-07-20T08:23:11;3.33;;;1.70;;
49828;SDS011;35723;51.194;5.112;2023-07-20T08:25:38;1.95;;;1.60;;
49828;SDS011;35723;51.194;5.112;2023-07-20T08:28:06;4.38;;;1.60;;
49828;SDS011;35723;51.194;5.112;2023-07-20T08:30:42;3.83;;;1.85;;
49828;SDS011;35723;51.194;5.112;2023-07-20T08:33:13;4.50;;;1.70;;
49828;SDS011;35723;51.194;5.112;2023-07-20T08:35:39;4.60;;;1.60;;
49828;SDS011;35723;51.194;5.112;2023-07-20T08:38:05;3.22;;;1.45;;
49828;SDS011;35723;51.194;5.112;2023-07-20T08:40:32;3.45;;;1.58;;
49828;SDS011;35723;51.194;5.112;2023-07-20T08:43:04;3.30;;;1.30;;
49828;SDS011;35723;51.194;5.112;2023-07-20T08:45:30;3.33;;;1.42;;
49828;SDS011;35723;51.194;5.112;2023-07-20T08:47:58;1.40;;;1.10;;
49828;SDS011;35723;51.194;5.112;2023-07-20T08:50:28;1.80;;;1.25;;
49828;SDS011;35723;51.194;5.112;2023-07-20T08:52:56;1.77;;;1.40;;
49828;SDS011;35723;51.194;5.112;2023-07-20T08:55:23;2.92;;;1.48;;
49828;SDS011;35723;51.194;5.112;2023-07-20T08:57:49;2.42;;;1.25;;
49828;SDS011;35723;51.194;5.112;2023-07-20T09:00:17;1.77;;;1.08;;
49828;SDS011;35723;51.194;5.112;2023-07-20T09:02:45;2.65;;;1.20;;
49828;SDS011;35723;51.194;5.112;2023-07-20T09:05:12;1.95;;;1.10;;
49828;SDS011;35723;51.194;5.112;2023-07-20T09:07:39;1.95;;;1.45;;
49828;SDS011;35723;51.194;5.112;2023-07-20T09:10:06;3.60;;;1.52;;
49828;SDS011;35723;51.194;5.112;2023-07-20T09:12:39;2.83;;;1.00;;
49828;SDS011;35723;51.194;5.112;2023-07-20T09:15:06;1.88;;;1.20;;
49828;SDS011;35723;51.194;5.112;2023-07-20T09:17:33;3.67;;;1.58;;
49828;SDS011;35723;51.194;5.112;2023-07-20T09:20:03;2.78;;;1.17;;
49828;SDS011;35723;51.194;5.112;2023-07-20T09:22:35;2.20;;;1.30;;
49828;SDS011;35723;51.194;5.112;2023-07-20T09:25:05;1.58;;;1.10;;
49828;SDS011;35723;51.194;5.112;2023-07-20T09:27:42;1.45;;;1.10;;
49828;SDS011;35723;51.194;5.112;2023-07-20T09:30:09;1.08;;;0.98;;
49828;SDS011;35723;51.194;5.112;2023-07-20T09:37:41;0.80;;;0.80;;
49828;SDS011;35723;51.194;5.112;2023-07-20T09:40:23;1.67;;;1.08;;
49828;SDS011;35723;51.194;5.112;2023-07-20T09:42:50;1.52;;;1.10;;
49828;SDS011;35723;51.194;5.112;2023-07-20T09:45:18;1.63;;;1.30;;
49828;SDS011;35723;51.194;5.112;2023-07-20T09:47:44;2.38;;;1.17;;
49828;SDS011;35723;51.194;5.112;2023-07-20T09:50:10;2.97;;;1.48;;
49828;SDS011;35723;51.194;5.112;2023-07-20T09:52:39;2.92;;;1.60;;
49828;SDS011;35723;51.194;5.112;2023-07-20T09:55:07;4.15;;;1.50;;
49828;SDS011;35723;51.194;5.112;2023-07-20T09:57:33;2.25;;;1.35;;
49828;SDS011;35723;51.194;5.112;2023-07-20T10:00:04;3.63;;;1.52;;
49828;SDS011;35723;51.194;5.112;2023-07-20T10:02:42;1.83;;;1.20;;
49828;SDS011;35723;51.194;5.112;2023-07-20T10:05:10;2.67;;;1.42;;
49828;SDS011;35723;51.194;5.112;2023-07-20T10:07:43;3.13;;;1.23;;
49828;SDS011;35723;51.194;5.112;2023-07-20T10:10:11;2.47;;;1.38;;
49828;SDS011;35723;51.194;5.112;2023-07-20T10:12:41;2.30;;;1.40;;
49828;SDS011;35723;51.194;5.112;2023-07-20T10:17:47;3.17;;;1.20;;
49828;SDS011;35723;51.194;5.112;2023-07-20T10:20:34;3.10;;;1.42;;
49828;SDS011;35723;51.194;5.112;2023-07-20T10:23:01;1.50;;;1.35;;
49828;SDS011;35723;51.194;5.112;2023-07-20T10:25:28;2.78;;;1.40;;
49828;SDS011;35723;51.194;5.112;2023-07-20T10:27:55;2.85;;;1.33;;
49828;SDS011;35723;51.194;5.112;2023-07-20T10:30:23;2.72;;;1.20;;
49828;SDS011;35723;51.194;5.112;2023-07-20T10:32:51;1.00;;;0.90;;
49828;SDS011;35723;51.194;5.112;2023-07-20T10:35:17;1.98;;;1.00;;
49828;SDS011;35723;51.194;5.112;2023-07-20T10:37:53;1.73;;;0.95;;
49828;SDS011;35723;51.194;5.112;2023-07-20T10:40:38;2.00;;;1.15;;
49828;SDS011;35723;51.194;5.112;2023-07-20T10:43:05;4.28;;;1.40;;
49828;SDS011;35723;51.194;5.112;2023-07-20T10:48:06;2.78;;;1.20;;
49828;SDS011;35723;51.194;5.112;2023-07-20T10:50:42;1.85;;;1.13;;
49828;SDS011;35723;51.194;5.112;2023-07-20T10:53:14;3.90;;;1.30;;
49828;SDS011;35723;51.194;5.112;2023-07-20T10:55:41;2.80;;;1.20;;
49828;SDS011;35723;51.194;5.112;2023-07-20T10:58:09;6.05;;;1.50;;
49828;SDS011;35723;51.194;5.112;2023-07-20T11:00:58;2.63;;;1.27;;
49828;SDS011;35723;51.194;5.112;2023-07-20T11:03:36;2.45;;;1.60;;
49828;SDS011;35723;51.194;5.112;2023-07-20T11:11:31;2.45;;;1.38;;
49828;SDS011;35723;51.194;5.112;2023-07-20T11:14:00;1.77;;;1.35;;
49828;SDS011;35723;51.194;5.112;2023-07-20T11:16:34;3.58;;;1.52;;
49828;SDS011;35723;51.194;5.112;2023-07-20T11:19:14;2.33;;;1.50;;
49828;SDS011;35723;51.194;5.112;2023-07-20T11:21:42;3.00;;;1.90;;
49828;SDS011;35723;51.194;5.112;2023-07-20T11:24:09;5.35;;;2.13;;
49828;SDS011;35723;51.194;5.112;2023-07-20T11:26:53;3.70;;;1.70;;
49828;SDS011;35723;51.194;5.112;2023-07-20T11:29:20;2.25;;;1.40;;
49828;SDS011;35723;51.194;5.112;2023-07-20T11:31:48;3.03;;;1.95;;
49828;SDS011;35723;51.194;5.112;2023-07-20T11:34:15;2.45;;;1.70;;
49828;SDS011;35723;51.194;5.112;2023-07-20T11:36:43;2.70;;;1.80;;
49828;SDS011;35723;51.194;5.112;2023-07-20T11:39:10;7.47;;;1.52;;
49828;SDS011;35723;51.194;5.112;2023-07-20T11:41:37;2.05;;;1.48;;
49828;SDS011;35723;51.194;5.112;2023-07-20T11:44:04;4.22;;;2.00;;
49828;SDS011;35723;51.194;5.112;2023-07-20T11:46:38;4.13;;;2.00;;
49828;SDS011;35723;51.194;5.112;2023-07-20T11:49:04;4.05;;;1.75;;
49828;SDS011;35723;51.194;5.112;2023-07-20T11:51:30;4.15;;;1.90;;
49828;SDS011;35723;51.194;5.112;2023-07-20T11:53:57;3.13;;;1.63;;
49828;SDS011;35723;51.194;5.112;2023-07-20T11:56:24;2.95;;;1.60;;
49828;SDS011;35723;51.194;5.112;2023-07-20T11:58:54;4.65;;;2.17;;
49828;SDS011;35723;51.194;5.112;2023-07-20T12:01:21;3.58;;;2.00;;
49828;SDS011;35723;51.194;5.112;2023-07-20T12:03:48;3.55;;;2.00;;
49828;SDS011;35723;51.194;5.112;2023-07-20T12:06:16;6.07;;;2.10;;
49828;SDS011;35723;51.194;5.112;2023-07-20T12:08:42;5.82;;;2.00;;
49828;SDS011;35723;51.194;5.112;2023-07-20T12:11:09;6.82;;;2.20;;
49828;SDS011;35723;51.194;5.112;2023-07-20T12:13:44;5.70;;;1.98;;
49828;SDS011;35723;51.194;5.112;2023-07-20T12:16:13;4.05;;;2.03;;
49828;SDS011;35723;51.194;5.112;2023-07-20T12:18:41;3.95;;;2.22;;
49828;SDS011;35723;51.194;5.112;2023-07-20T12:21:07;6.60;;;2.03;;
49828;SDS011;35723;51.194;5.112;2023-07-20T12:23:37;6.28;;;2.30;;
49828;SDS011;35723;51.194;5.112;2023-07-20T12:26:07;4.30;;;1.90;;
49828;SDS011;35723;51.194;5.112;2023-07-20T12:28:41;3.05;;;1.77;;
49828;SDS011;35723;51.194;5.112;2023-07-20T12:31:07;5.63;;;1.75;;
49828;SDS011;35723;51.194;5.112;2023-07-20T12:33:35;3.55;;;1.50;;
49828;SDS011;35723;51.194;5.112;2023-07-20T12:36:04;4.80;;;1.52;;
49828;SDS011;35723;51.194;5.112;2023-07-20T12:38:30;4.93;;;1.70;;
49828;SDS011;35723;51.194;5.112;2023-07-20T12:40:56;2.80;;;1.80;;
49828;SDS011;35723;51.194;5.112;2023-07-20T12:43:23;5.28;;;1.98;;
49828;SDS011;35723;51.194;5.112;2023-07-20T12:45:49;3.83;;;1.92;;
49828;SDS011;35723;51.194;5.112;2023-07-20T12:48:15;3.60;;;1.63;;
49828;SDS011;35723;51.194;5.112;2023-07-20T12:50:40;4.28;;;1.67;;
49828;SDS011;35723;51.194;5.112;2023-07-20T12:53:06;3.80;;;1.70;;
49828;SDS011;35723;51.194;5.112;2023-07-20T12:55:32;3.00;;;1.75;;
49828;SDS011;35723;51.194;5.112;2023-07-20T12:57:57;3.17;;;1.90;;
49828;SDS011;35723;51.194;5.112;2023-07-20T13:00:23;7.35;;;1.80;;
49828;SDS011;35723;51.194;5.112;2023-07-20T13:02:49;4.18;;;1.70;;
49828;SDS011;35723;51.194;5.112;2023-07-20T13:05:15;4.43;;;1.85;;
49828;SDS011;35723;51.194;5.112;2023-07-20T13:07:41;3.20;;;1.70;;
49828;SDS011;35723;51.194;5.112;2023-07-20T13:10:07;6.65;;;2.00;;
49828;SDS011;35723;51.194;5.112;2023-07-20T13:12:34;3.35;;;2.20;;
49828;SDS011;35723;51.194;5.112;2023-07-20T13:15:04;3.38;;;1.92;;
49828;SDS011;35723;51.194;5.112;2023-07-20T13:17:32;3.63;;;1.73;;
49828;SDS011;35723;51.194;5.112;2023-07-20T13:19:58;3.45;;;1.48;;
49828;SDS011;35723;51.194;5.112;2023-07-20T13:22:24;3.75;;;1.80;;
49828;SDS011;35723;51.194;5.112;2023-07-20T13:24:49;7.45;;;1.90;;
49828;SDS011;35723;51.194;5.112;2023-07-20T13:27:18;2.97;;;1.80;;
49828;SDS011;35723;51.194;5.112;2023-07-20T13:29:44;3.42;;;1.50;;
49828;SDS011;35723;51.194;5.112;2023-07-20T13:32:13;5.40;;;2.00;;
49828;SDS011;35723;51.194;5.112;2023-07-20T13:34:40;2.15;;;1.58;;
49828;SDS011;35723;51.194;5.112;2023-07-20T13:37:06;3.92;;;2.10;;
49828;SDS011;35723;51.194;5.112;2023-07-20T13:39:31;7.07;;;1.92;;
49828;SDS011;35723;51.194;5.112;2023-07-20T13:41:57;2.15;;;1.60;;
49828;SDS011;35723;51.194;5.112;2023-07-20T13:44:23;9.27;;;1.90;;
49828;SDS011;35723;51.194;5.112;2023-07-20T13:46:48;3.25;;;1.70;;
49828;SDS011;35723;51.194;5.112;2023-07-20T13:49:14;6.88;;;2.00;;
49828;SDS011;35723;51.194;5.112;2023-07-20T13:51:43;3.08;;;1.83;;
49828;SDS011;35723;51.194;5.112;2023-07-20T13:54:09;5.15;;;1.90;;
49828;SDS011;35723;51.194;5.112;2023-07-20T13:56:35;2.85;;;1.80;;
49828;SDS011;35723;51.194;5.112;2023-07-20T13:59:00;4.65;;;2.03;;
49828;SDS011;35723;51.194;5.112;2023-07-20T14:01:26;3.40;;;1.70;;
49828;SDS011;35723;51.194;5.112;2023-07-20T14:03:53;4.95;;;1.63;;
49828;SDS011;35723;51.194;5.112;2023-07-20T14:06:19;4.50;;;1.77;;
49828;SDS011;35723;51.194;5.112;2023-07-20T14:08:45;4.82;;;1.73;;
49828;SDS011;35723;51.194;5.112;2023-07-20T14:11:12;6.78;;;1.90;;
49828;SDS011;35723;51.194;5.112;2023-07-20T14:13:38;5.20;;;1.70;;
49828;SDS011;35723;51.194;5.112;2023-07-20T14:16:04;6.10;;;2.10;;
49828;SDS011;35723;51.194;5.112;2023-07-20T14:18:30;8.48;;;1.90;;
49828;SDS011;35723;51.194;5.112;2023-07-20T14:20:56;6.95;;;2.05;;
49828;SDS011;35723;51.194;5.112;2023-07-20T14:23:22;9.30;;;2.10;;
49828;SDS011;35723;51.194;5.112;2023-07-20T14:25:48;4.97;;;2.00;;
49828;SDS011;35723;51.194;5.112;2023-07-20T14:28:13;5.93;;;2.17;;
49828;SDS011;35723;51.194;5.112;2023-07-20T14:30:39;4.25;;;2.28;;
49828;SDS011;35723;51.194;5.112;2023-07-20T14:33:05;3.75;;;1.90;;
49828;SDS011;35723;51.194;5.112;2023-07-20T14:35:31;3.28;;;1.70;;
49828;SDS011;35723;51.194;5.112;2023-07-20T14:37:57;6.28;;;2.03;;
49828;SDS011;35723;51.194;5.112;2023-07-20T14:40:23;3.28;;;1.80;;
49828;SDS011;35723;51.194;5.112;2023-07-20T14:42:49;3.63;;;1.70;;
49828;SDS011;35723;51.194;5.112;2023-07-20T14:45:14;7.30;;;1.90;;
49828;SDS011;35723;51.194;5.112;2023-07-20T14:47:40;3.05;;;1.80;;
49828;SDS011;35723;51.194;5.112;2023-07-20T14:50:08;4.15;;;1.95;;
49828;SDS011;35723;51.194;5.112;2023-07-20T14:52:34;3.80;;;1.70;;
49828;SDS011;35723;51.194;5.112;2023-07-20T14:54:59;2.17;;;1.73;;
49828;SDS011;35723;51.194;5.112;2023-07-20T14:57:25;3.65;;;2.00;;
49828;SDS011;35723;51.194;5.112;2023-07-20T14:59:51;4.72;;;1.73;;
49828;SDS011;35723;51.194;5.112;2023-07-20T15:02:17;4.88;;;1.63;;